Flight Track Log - Related Links

Times and Time Zones

All times are in EDT time to prevent confusion due to time zone crossing. See the N108RJ flight status page for this flight to view local times or setup timezone preferences in your user account.


Time Position Orientation Groundspeed Altitude Reporting Facility
EDT Latitude Longitude Course Direction KTS MPH feet Rate Location/Type
Sun 05:05:27 PM 48.6167 -123.3667 194° South 160 184 1,400  Level Vancouver Center
Sun 05:06:27 PM 48.6000 -123.3000 111° Southeast 160 184 3,300 1,950 Climbing Vancouver Center
Sun 05:07:27 PM 48.5667 -123.3000 180° South 160 184 5,300 1,800 Climbing Vancouver Center
Sun 05:08:27 PM 48.5167 -123.3000 180° South 160 184 6,900 1,600 Climbing Vancouver Center
Sun 05:09:00 PM 48.2892 -123.3237 174° South  Level Estimated
Sun 05:09:27 PM 48.4833 -123.3000 180° South 160 184 8,500  Level Vancouver Center
Sun 05:10:00 PM 48.2295 -123.3068 176° South  Level Estimated
Sun 05:10:27 PM 48.4333 -123.3000 180° South 160 184 10,100  Level Vancouver Center
Sun 05:11:00 PM 48.1706 -123.3285 194° South  Level FlightAware Approximate
Sun 05:11:27 PM 48.3833 -123.2667 156° South 160 184 11,600  Level Vancouver Center
Sun 05:12:27 PM 48.3333 -123.2667 180° South 170 196 13,200 1,400 Climbing Vancouver Center
Sun 05:13:27 PM 48.3000 -123.2667 180° South 170 196 14,400 1,250 Climbing Vancouver Center
Sun 05:14:27 PM 48.2500 -123.2667 180° South 180 207 15,700 1,250 Climbing Vancouver Center
Sun 05:15:27 PM 48.2000 -123.2500 167° South 170 196 16,900 1,200 Climbing Vancouver Center
Sun 05:16:27 PM 48.1500 -123.2500 180° South 170 196 18,100 1,200 Climbing Vancouver Center
Sun 05:17:27 PM 48.1000 -123.2500 180° South 170 196 19,300 1,056 Climbing Vancouver Center
Sun 05:18:15 PM 48.0883 -123.2583 206° Southwest 175 201 20,000 826 Climbing Seattle Center
Sun 05:19:16 PM 48.0406 -123.2581 180° South 174 200 20,800 885 Climbing Seattle Center
Sun 05:20:17 PM 47.9914 -123.2561 178° South 176 203 21,800 836 Climbing Seattle Center
Sun 05:21:18 PM 47.9281 -123.2553 179° South 188 216 22,500 541 Climbing Seattle Center
Sun 05:22:19 PM 47.8736 -123.2533 179° South 197 227 22,900 246 Climbing Seattle Center
Sun 05:23:20 PM 47.8169 -123.2517 179° South 203 234 23,000 33 Climbing Seattle Center
Sun 05:25:22 PM 47.6947 -123.2494 179° South 220 253 23,000  Level Seattle Center
Sun 05:26:23 PM 47.6328 -123.2478 179° South 224 258 23,000  Level Seattle Center
Sun 05:27:24 PM 47.5717 -123.2439 178° South 223 257 23,000  Level Seattle Center
Sun 05:28:25 PM 47.4981 -123.2428 179° South 224 258 23,000  Level Seattle Center
Sun 05:29:26 PM 47.4381 -123.2417 179° South 219 252 23,000  Level Seattle Center
Sun 05:30:27 PM 47.3761 -123.2386 178° South 224 258 23,000  Level Seattle Center
Sun 05:31:28 PM 47.3161 -123.2372 179° South 221 254 23,000  Level Seattle Center
Sun 05:32:29 PM 47.2558 -123.2372 180° South 219 252 23,000  Level Seattle Center
Sun 05:33:30 PM 47.1956 -123.2350 179° South 219 252 23,000  Level Seattle Center
Sun 05:34:31 PM 47.1339 -123.2317 178° South 223 257 23,000  Level Seattle Center
Sun 05:35:32 PM 47.0603 -123.2311 180° South 223 257 23,000  Level Seattle Center
Sun 05:36:33 PM 47.0003 -123.2281 178° South 219 252 23,000  Level Seattle Center
Sun 05:37:34 PM 46.9386 -123.2264 179° South 222 255 23,000 -98 Level Seattle Center
Sun 05:38:35 PM 46.8778 -123.2242 179° South 222 255 22,800 -934 Descending Seattle Center
Sun 05:39:36 PM 46.8097 -123.2228 179° South 243 280 21,100 -1,672 Descending Seattle Center
Sun 05:40:37 PM 46.7367 -123.2203 179° South 262 302 19,400 -1,623 Descending Seattle Center
Sun 05:41:38 PM 46.6650 -123.2219 181° South 258 297 17,800 -1,525 Descending Seattle Center
Sun 05:42:39 PM 46.5903 -123.2189 178° South 267 307 16,300 -1,377 Descending Seattle Center
Sun 05:43:40 PM 46.5061 -123.2164 179° South 257 296 15,000 -1,082 Descending Seattle Center
Sun 05:44:41 PM 46.4453 -123.2153 179° South 252 290 14,100 -976 Descending Seattle Center
Sun 05:45:43 PM 46.3764 -123.2114 178° South 247 284 13,000 -1,024 Descending Seattle Center
Sun 05:46:44 PM 46.3097 -123.2108 180° South 243 280 12,000 -934 Descending Seattle Center
Sun 05:47:45 PM 46.2289 -123.2072 178° South 241 277 11,100 -505 Descending Seattle Center
Sun 05:48:31 PM 46.1792 -123.2036 177° South 232 267 11,100  Level Seattle Center
Sun 05:49:25 PM 46.1206 -123.2025 179° South 222 255 11,100  Level Seattle Center
Sun 05:50:26 PM 46.0600 -123.2019 180° South 221 254 11,100  Level Seattle Center
Sun 05:51:27 PM 45.9986 -123.1983 178° South 220 253 11,100  Level Seattle Center
Sun 05:52:22 PM 45.9450 -123.1889 173° South 223 257 11,100  Level Seattle Center
Sun 05:53:29 PM 45.9094 -123.0947 118° Southeast 242 278 11,100 -236 Level Seattle Center
Sun 05:54:29 PM 45.8814 -123.0069 115° Southeast 238 274 10,600 -1,091 Descending Seattle Center
Sun 05:55:30 PM 45.8525 -122.9164 115° Southeast 255 293 8,900 -1,172 Descending Seattle Center
Sun 05:56:37 PM 45.8206 -122.8208 116° Southeast 245 282 8,100 -329 Descending Seattle Center
Sun 05:57:56 PM 45.7933 -122.7292 113° Southeast 228 262 8,100  Level Seattle Center
Sun 05:58:57 PM 45.7667 -122.6525 116° Southeast 219 252 8,100 -524 Level Seattle Center
Sun 05:59:39 PM 45.7347 -122.5867 125° Southeast 221 254 7,200 -1,237 Descending Seattle Center
Sun 06:00:34 PM 45.6986 -122.5147 126° Southeast 238 274 6,100 -894 Descending Seattle Center
Sun 06:02:00 PM 45.6564 -122.4231 123° Southeast 214 246 5,100 -744 Descending Seattle Center
Sun 06:02:35 PM 45.6383 -122.3881 126° Southeast 187 215 4,600 -667 Descending Seattle Center
Sun 06:03:30 PM 45.5978 -122.4017 193° South 208 239 4,100 -886 Descending Seattle Center
Sun 06:04:03 PM 45.5928 -122.4317 257° West 188 216 3,300 -1,340 Descending Seattle Center
Sun 06:05:04 PM 45.5711 -122.4958 244° Southwest 184 212 2,000 -1,426 Descending Seattle Center
Sun 06:05:44 PM 45.5667 -122.5258 258° West 86 99 900 -738 Descending Seattle Center
Sun 06:07:06 PM 45.5825 -122.5728 296° West 128 147 500 -293 Descending Seattle Center

Login

Don't have an account? Register now (free) for customized features, flight alerts, and more!